Time;durP1;ratioP1;P1;durP2;ratioP2;P2;SDS_P1;SDS_P2;PMS_P1;PMS_P2;Temp;Humidity;BMP_temperature;BMP_pressure;BME280_temperature;BME280_humidity;BME280_pressure;Samples;Min_cycle;Max_cycle;Signal;HPM_P1;HPM_P2
2023/04/20 00:00:23;;;;;;;;;;;6.80;91.60;;;;;;5057320;28;19975;-46
2023/04/20 00:02:50;;;;;;;;;;;6.90;92.60;;;;;;5041536;28;19990;-44
2023/04/20 00:05:17;;;;;;;;;;;6.90;91.70;;;;;;5044706;28;20001;-48
2023/04/20 00:07:43;;;;;;;;;;;6.90;92.60;;;;;;5055389;28;19980;-45
2023/04/20 00:10:10;;;;;;;;;;;7.00;94.30;;;;;;5068923;28;19939;-48
2023/04/20 00:12:38;;;;;;;;;;;7.10;92.90;;;;;;5065317;28;19921;-44
2023/04/20 00:15:05;;;;;;;;;;;7.10;94.40;;;;;;5049421;28;19995;-44
2023/04/20 00:17:32;;;;;;;;;;;7.20;94.40;;;;;;5064523;28;20016;-47
2023/04/20 00:19:58;;;;;;;;;;;7.20;97.90;;;;;;5051221;28;20476;-46
2023/04/20 00:22:27;;;;;;;;;;;7.30;97.40;;;;;;5051577;28;20589;-47
2023/04/20 00:24:53;;;;;;;;;;;7.30;97.60;;;;;;5061778;28;19927;-41
2023/04/20 00:27:20;;;;;;;;;;;7.50;96.90;;;;;;5065773;28;19947;-44
2023/04/20 00:29:48;;;;;;;;;;;7.50;98.70;;;;;;5054505;28;20354;-47
2023/04/20 00:32:15;;;;;;;;;;;7.60;98.90;;;;;;5061772;28;19987;-45
2023/04/20 00:34:41;;;;;;;;;;;7.60;98.80;;;;;;5052076;28;20025;-40
2023/04/20 00:37:08;;;;;;;;;;;7.70;99.30;;;;;;5054897;28;20399;-45
2023/04/20 00:39:34;;;;;;;;;;;7.70;99.20;;;;;;5053964;28;20021;-47
2023/04/20 00:42:05;;;;;;;;;;;7.80;99.10;;;;;;5064162;28;19924;-45
2023/04/20 00:44:31;;;;;;;;;;;7.80;99.90;;;;;;5054169;28;19935;-44
2023/04/20 00:47:00;;;;;;;;;;;7.80;99.90;;;;;;5054781;28;20438;-46
2023/04/20 00:49:28;;;;;;;;;;;7.80;99.90;;;;;;5053818;28;19920;-46
2023/04/20 00:51:55;;;;;;;;;;;7.90;99.70;;;;;;5035033;28;19936;-49
2023/04/20 00:54:22;;;;;;;;;;;7.90;99.90;;;;;;5043107;28;20365;-46
2023/04/20 00:56:48;;;;;;;;;;;7.90;99.90;;;;;;5062254;28;19970;-44
2023/04/20 00:59:15;;;;;;;;;;;7.90;99.90;;;;;;5062992;28;20006;-47
2023/04/20 01:01:42;;;;;;;;;;;7.90;99.90;;;;;;5047530;28;19936;-43
2023/04/20 01:04:10;;;;;;;;;;;8.00;99.90;;;;;;5051751;28;20497;-47
2023/04/20 01:06:37;;;;;;;;;;;8.00;99.90;;;;;;5067847;28;20020;-47
2023/04/20 01:09:03;;;;;;;;;;;8.10;99.90;;;;;;5055137;28;19941;-44
2023/04/20 01:11:30;;;;;;;;;;;8.10;99.90;;;;;;5052921;28;19981;-47
2023/04/20 01:13:57;;;;;;;;;;;8.10;99.90;;;;;;5058106;28;19981;-46
2023/04/20 01:16:24;;;;;;;;;;;8.20;99.90;;;;;;5058043;28;19991;-47
2023/04/20 01:18:50;;;;;;;;;;;8.20;99.90;;;;;;5053123;28;20015;-46
2023/04/20 01:21:20;;;;;;;;;;;8.20;99.90;;;;;;5053914;28;19983;-47
2023/04/20 01:23:48;;;;;;;;;;;8.30;99.90;;;;;;5052648;28;19931;-43
2023/04/20 01:26:15;;;;;;;;;;;8.30;99.90;;;;;;5050602;28;19953;-46
2023/04/20 01:28:42;;;;;;;;;;;8.40;99.90;;;;;;5068529;28;20059;-50
2023/04/20 01:31:09;;;;;;;;;;;8.40;99.90;;;;;;5054717;28;19939;-47
2023/04/20 01:33:36;;;;;;;;;;;8.40;99.90;;;;;;5053943;28;19932;-48
2023/04/20 01:36:02;;;;;;;;;;;8.50;99.90;;;;;;5052028;28;19986;-50
2023/04/20 01:38:31;;;;;;;;;;;8.50;99.90;;;;;;5036218;28;19991;-48
2023/04/20 01:40:59;;;;;;;;;;;8.50;99.90;;;;;;5052772;28;20404;-42
2023/04/20 01:43:26;;;;;;;;;;;8.50;99.90;;;;;;5055100;28;19964;-45
2023/04/20 01:45:52;;;;;;;;;;;8.60;99.90;;;;;;5056848;28;19963;-44
2023/04/20 01:48:19;;;;;;;;;;;8.60;99.90;;;;;;5056008;28;19989;-43
2023/04/20 01:50:46;;;;;;;;;;;8.60;99.90;;;;;;5052768;28;19976;-44
2023/04/20 01:53:13;;;;;;;;;;;8.60;99.90;;;;;;5053485;28;19991;-44
2023/04/20 01:55:40;;;;;;;;;;;8.60;99.90;;;;;;5060519;28;19941;-44
2023/04/20 01:58:07;;;;;;;;;;;8.60;99.90;;;;;;5057932;28;19955;-47
2023/04/20 02:00:34;;;;;;;;;;;8.60;99.90;;;;;;5055461;28;20005;-46
2023/04/20 02:03:01;;;;;;;;;;;8.70;99.90;;;;;;5066864;28;19997;-43
2023/04/20 02:05:27;;;;;;;;;;;8.70;99.90;;;;;;5051638;28;19994;-43
2023/04/20 02:07:54;;;;;;;;;;;8.60;99.90;;;;;;5063985;28;19990;-43
2023/04/20 02:10:21;;;;;;;;;;;8.60;99.90;;;;;;5052319;28;19945;-43
2023/04/20 02:12:47;;;;;;;;;;;8.60;99.90;;;;;;5058305;28;19935;-44
2023/04/20 02:15:15;;;;;;;;;;;8.60;99.90;;;;;;5051149;28;19940;-42
2023/04/20 02:17:42;;;;;;;;;;;8.60;99.90;;;;;;5051695;28;19955;-46
2023/04/20 02:20:10;;;;;;;;;;;8.50;99.90;;;;;;5066917;28;19936;-46
2023/04/20 02:22:36;;;;;;;;;;;8.50;99.90;;;;;;5056324;28;19938;-47
2023/04/20 02:25:03;;;;;;;;;;;8.50;99.90;;;;;;5064476;28;19930;-46
2023/04/20 02:27:30;;;;;;;;;;;8.50;99.90;;;;;;5055226;28;20451;-48
2023/04/20 02:29:57;;;;;;;;;;;8.50;99.90;;;;;;5061586;28;19935;-45
2023/04/20 02:32:25;;;;;;;;;;;8.50;99.90;;;;;;5051741;28;20015;-48
2023/04/20 02:34:51;;;;;;;;;;;8.50;99.90;;;;;;5066776;28;19939;-46
2023/04/20 02:37:18;;;;;;;;;;;8.50;99.90;;;;;;5056594;28;19995;-46
2023/04/20 02:39:45;;;;;;;;;;;8.50;99.90;;;;;;5051932;28;19988;-44
2023/04/20 02:42:12;;;;;;;;;;;8.50;99.90;;;;;;5051834;28;19940;-46
2023/04/20 02:44:38;;;;;;;;;;;8.50;99.90;;;;;;5051706;28;19936;-49
2023/04/20 02:47:05;;;;;;;;;;;8.50;99.90;;;;;;5051521;28;19992;-45
2023/04/20 02:49:33;;;;;;;;;;;8.50;99.90;;;;;;5056371;28;20464;-47
2023/04/20 02:52:00;;;;;;;;;;;8.50;99.90;;;;;;5057052;28;19986;-46
2023/04/20 02:54:26;;;;;;;;;;;8.50;99.90;;;;;;5051975;28;20302;-47
2023/04/20 02:56:53;;;;;;;;;;;8.40;99.90;;;;;;5049749;28;20030;-45
2023/04/20 02:59:20;;;;;;;;;;;8.40;99.90;;;;;;5057296;28;19936;-43
2023/04/20 03:01:46;;;;;;;;;;;8.40;99.90;;;;;;5051289;28;19956;-50
2023/04/20 03:04:13;;;;;;;;;;;8.40;99.90;;;;;;5053972;28;20113;-45
2023/04/20 03:06:41;;;;;;;;;;;8.40;99.90;;;;;;5056647;28;20040;-47
2023/04/20 03:09:08;;;;;;;;;;;8.40;99.90;;;;;;5051291;28;20024;-46
2023/04/20 03:11:35;;;;;;;;;;;8.40;99.90;;;;;;5051167;28;19937;-47
2023/04/20 03:14:01;;;;;;;;;;;8.30;99.90;;;;;;5051250;28;20025;-45
2023/04/20 03:16:28;;;;;;;;;;;8.40;99.90;;;;;;5049689;28;20034;-47
2023/04/20 03:18:55;;;;;;;;;;;8.40;99.90;;;;;;5051645;28;19959;-44
2023/04/20 03:21:21;;;;;;;;;;;8.40;99.90;;;;;;5059054;28;20448;-45
2023/04/20 03:23:49;;;;;;;;;;;8.40;99.90;;;;;;5055558;28;20457;-47
2023/04/20 03:26:16;;;;;;;;;;;8.50;99.90;;;;;;5051885;28;19938;-46
2023/04/20 03:28:43;;;;;;;;;;;8.50;99.90;;;;;;5051018;28;19931;-47
2023/04/20 03:31:10;;;;;;;;;;;8.50;99.90;;;;;;5054276;28;19987;-46
2023/04/20 03:33:36;;;;;;;;;;;8.50;99.90;;;;;;5058709;28;19939;-44
2023/04/20 03:36:04;;;;;;;;;;;8.50;99.90;;;;;;5050374;28;20003;-46
2023/04/20 03:38:31;;;;;;;;;;;8.50;99.90;;;;;;5052146;28;20480;-45
2023/04/20 03:40:59;;;;;;;;;;;8.50;99.90;;;;;;5048151;28;20326;-44
2023/04/20 03:43:26;;;;;;;;;;;8.50;99.90;;;;;;5061298;28;19961;-46
2023/04/20 03:45:52;;;;;;;;;;;8.40;99.90;;;;;;5061665;28;19978;-48
2023/04/20 03:48:19;;;;;;;;;;;8.50;99.90;;;;;;5047913;28;20008;-47
2023/04/20 03:50:45;;;;;;;;;;;8.50;99.90;;;;;;5055499;28;19941;-45
2023/04/20 03:53:12;;;;;;;;;;;8.50;99.90;;;;;;5051158;28;19934;-44
2023/04/20 03:55:39;;;;;;;;;;;8.50;99.90;;;;;;5049466;28;19937;-45
2023/04/20 03:58:07;;;;;;;;;;;8.50;99.90;;;;;;5058457;28;20265;-47
2023/04/20 04:00:34;;;;;;;;;;;8.50;99.90;;;;;;5060525;28;19931;-43
2023/04/20 04:03:01;;;;;;;;;;;8.40;99.90;;;;;;5061907;28;19975;-46
2023/04/20 04:05:27;;;;;;;;;;;8.50;99.90;;;;;;5064203;28;19943;-49
2023/04/20 04:07:54;;;;;;;;;;;8.50;99.90;;;;;;5061138;28;20041;-41
2023/04/20 04:10:21;;;;;;;;;;;8.50;99.90;;;;;;5035760;28;19941;-45
2023/04/20 04:12:48;;;;;;;;;;;8.50;99.90;;;;;;5053059;28;20343;-45
2023/04/20 04:15:18;;;;;;;;;;;8.40;99.90;;;;;;5054410;28;19997;-47
2023/04/20 04:17:44;;;;;;;;;;;8.40;99.90;;;;;;5051443;28;19970;-44
2023/04/20 04:20:11;;;;;;;;;;;8.40;99.90;;;;;;5050075;28;19944;-51
2023/04/20 04:22:38;;;;;;;;;;;8.30;99.90;;;;;;5055460;28;20372;-46
2023/04/20 04:25:05;;;;;;;;;;;8.30;99.90;;;;;;5068593;28;19978;-46
2023/04/20 04:27:33;;;;;;;;;;;8.20;99.90;;;;;;5053389;28;19951;-45
2023/04/20 04:30:01;;;;;;;;;;;8.20;99.90;;;;;;5053094;28;20136;-45
2023/04/20 04:32:29;;;;;;;;;;;8.10;99.90;;;;;;5052281;28;19942;-46
2023/04/20 04:34:56;;;;;;;;;;;8.00;99.90;;;;;;5053842;28;19959;-45
2023/04/20 04:37:23;;;;;;;;;;;7.90;99.90;;;;;;5053855;28;20396;-45
2023/04/20 04:39:49;;;;;;;;;;;7.90;99.90;;;;;;5053091;28;19937;-44
2023/04/20 04:42:16;;;;;;;;;;;7.80;99.90;;;;;;5053758;28;19989;-43
2023/04/20 04:44:43;;;;;;;;;;;7.80;99.90;;;;;;5054396;28;20012;-43
2023/04/20 04:47:10;;;;;;;;;;;7.70;99.90;;;;;;5063272;28;19991;-46
2023/04/20 04:49:39;;;;;;;;;;;7.60;99.90;;;;;;5050219;28;20467;-44
2023/04/20 04:52:07;;;;;;;;;;;7.60;99.90;;;;;;5052471;28;19944;-47
2023/04/20 04:54:33;;;;;;;;;;;7.50;99.90;;;;;;5058688;28;19935;-43
2023/04/20 04:57:00;;;;;;;;;;;7.50;99.90;;;;;;5058151;28;20110;-46
2023/04/20 04:59:27;;;;;;;;;;;7.50;99.90;;;;;;5052012;28;19944;-44
2023/04/20 05:01:53;;;;;;;;;;;7.40;99.90;;;;;;5055350;28;19944;-39
2023/04/20 05:04:20;;;;;;;;;;;7.40;99.90;;;;;;5050824;28;20016;-45
2023/04/20 05:06:48;;;;;;;;;;;7.40;99.90;;;;;;5056539;28;19939;-48
2023/04/20 05:09:14;;;;;;;;;;;7.40;99.90;;;;;;5064176;28;19921;-47
2023/04/20 05:11:41;;;;;;;;;;;7.40;99.90;;;;;;5039935;28;19941;-48
2023/04/20 05:14:08;;;;;;;;;;;7.40;99.90;;;;;;5067295;28;20346;-50
2023/04/20 05:16:34;;;;;;;;;;;7.40;99.90;;;;;;5050856;28;19932;-49
2023/04/20 05:19:01;;;;;;;;;;;7.40;99.90;;;;;;5045821;28;19951;-45
2023/04/20 05:21:28;;;;;;;;;;;7.40;99.90;;;;;;5041457;28;19934;-50
2023/04/20 05:23:56;;;;;;;;;;;7.40;99.90;;;;;;5051284;28;19935;-50
2023/04/20 05:26:22;;;;;;;;;;;7.40;99.90;;;;;;5052154;28;19965;-52
2023/04/20 05:28:50;;;;;;;;;;;7.40;99.90;;;;;;5064028;28;20040;-51
2023/04/20 05:31:16;;;;;;;;;;;7.40;99.90;;;;;;5052406;28;20138;-52
2023/04/20 05:33:43;;;;;;;;;;;7.40;99.90;;;;;;5050074;28;19937;-48
2023/04/20 05:36:10;;;;;;;;;;;7.40;99.90;;;;;;5049830;28;20475;-50
2023/04/20 05:38:36;;;;;;;;;;;7.40;99.90;;;;;;5062260;28;19937;-47
2023/04/20 05:41:05;;;;;;;;;;;7.40;99.90;;;;;;5052017;28;19962;-48
2023/04/20 05:43:31;;;;;;;;;;;7.40;99.90;;;;;;5050379;28;19935;-50
2023/04/20 05:45:58;;;;;;;;;;;7.40;99.90;;;;;;5047809;28;20026;-52
2023/04/20 05:48:26;;;;;;;;;;;7.40;99.90;;;;;;5049851;28;19996;-46
2023/04/20 05:50:52;;;;;;;;;;;7.40;99.90;;;;;;5050153;28;20291;-51
2023/04/20 05:53:20;;;;;;;;;;;7.40;99.90;;;;;;5051501;28;19921;-48
2023/04/20 05:55:47;;;;;;;;;;;7.40;99.90;;;;;;5048468;28;19993;-51
2023/04/20 05:58:15;;;;;;;;;;;7.50;99.90;;;;;;5046339;28;19945;-46
2023/04/20 06:00:41;;;;;;;;;;;7.40;99.90;;;;;;5047784;28;19931;-41
2023/04/20 06:03:08;;;;;;;;;;;7.40;99.90;;;;;;5049101;28;19984;-55
2023/04/20 06:05:35;;;;;;;;;;;7.50;99.90;;;;;;5035753;28;20041;-46
2023/04/20 06:08:01;;;;;;;;;;;7.40;99.90;;;;;;5052222;28;19957;-50
2023/04/20 06:10:31;;;;;;;;;;;7.40;99.90;;;;;;5042901;28;19937;-53
2023/04/20 06:12:57;;;;;;;;;;;7.40;99.90;;;;;;5043574;28;19937;-48
2023/04/20 06:15:25;;;;;;;;;;;7.40;99.90;;;;;;5039044;28;19985;-50
2023/04/20 06:17:52;;;;;;;;;;;7.30;99.90;;;;;;5054955;28;19925;-52
2023/04/20 06:20:19;;;;;;;;;;;7.30;99.90;;;;;;5051334;28;19937;-48
2023/04/20 06:22:46;;;;;;;;;;;7.30;99.90;;;;;;5050453;28;20054;-54
2023/04/20 06:25:14;;;;;;;;;;;7.30;99.90;;;;;;5049812;28;19945;-55
2023/04/20 06:27:40;;;;;;;;;;;7.30;99.90;;;;;;5033841;28;19953;-47
2023/04/20 06:30:07;;;;;;;;;;;7.30;99.90;;;;;;5031491;28;19978;-47
2023/04/20 06:32:36;;;;;;;;;;;7.20;99.90;;;;;;5031449;28;19980;-43
2023/04/20 06:35:03;;;;;;;;;;;7.20;99.90;;;;;;5031586;28;19937;-44
2023/04/20 06:37:29;;;;;;;;;;;7.10;99.90;;;;;;5061963;28;19981;-40
2023/04/20 06:39:56;;;;;;;;;;;7.10;99.90;;;;;;5050429;28;19939;-47
2023/04/20 06:42:23;;;;;;;;;;;7.00;99.90;;;;;;5051286;28;20447;-42
2023/04/20 06:44:49;;;;;;;;;;;7.00;99.90;;;;;;5054283;28;19972;-45
2023/04/20 06:47:16;;;;;;;;;;;6.90;99.90;;;;;;5071024;28;19982;-45
2023/04/20 06:49:44;;;;;;;;;;;6.90;99.90;;;;;;5070296;28;19994;-41
2023/04/20 06:52:11;;;;;;;;;;;6.90;99.90;;;;;;5071233;28;20056;-48
2023/04/20 06:54:37;;;;;;;;;;;6.80;99.90;;;;;;5064639;28;19942;-47
2023/04/20 06:57:04;;;;;;;;;;;6.80;99.90;;;;;;5030822;28;19937;-48
2023/04/20 06:59:31;;;;;;;;;;;6.70;99.90;;;;;;5031339;28;19943;-47
2023/04/20 07:01:57;;;;;;;;;;;6.70;99.90;;;;;;5037557;28;19985;-45
2023/04/20 07:04:24;;;;;;;;;;;6.60;99.90;;;;;;5053139;28;19981;-46
2023/04/20 07:06:52;;;;;;;;;;;6.50;99.90;;;;;;5048896;28;19979;-46
2023/04/20 07:09:18;;;;;;;;;;;6.60;99.90;;;;;;5070272;28;19964;-45
2023/04/20 07:11:45;;;;;;;;;;;6.60;99.90;;;;;;5067740;28;20376;-46
2023/04/20 07:14:12;;;;;;;;;;;6.50;99.90;;;;;;5052769;28;19935;-48
2023/04/20 07:16:38;;;;;;;;;;;6.50;99.90;;;;;;5050115;28;19974;-53
2023/04/20 07:19:05;;;;;;;;;;;6.50;99.90;;;;;;5050927;28;20016;-47
2023/04/20 07:21:32;;;;;;;;;;;6.50;99.90;;;;;;5050772;28;20357;-52
2023/04/20 07:24:00;;;;;;;;;;;6.40;99.90;;;;;;5056864;28;20312;-51
2023/04/20 07:26:26;;;;;;;;;;;6.50;99.90;;;;;;5066825;28;19938;-47
2023/04/20 07:28:53;;;;;;;;;;;6.50;99.90;;;;;;5064199;28;20027;-44
2023/04/20 07:31:20;;;;;;;;;;;6.50;99.90;;;;;;5041060;28;19976;-46
2023/04/20 07:33:46;;;;;;;;;;;6.60;99.90;;;;;;5061224;28;19935;-42
2023/04/20 07:36:13;;;;;;;;;;;6.60;99.90;;;;;;5071253;28;19949;-48
2023/04/20 07:38:40;;;;;;;;;;;6.60;99.90;;;;;;5066955;28;19964;-46
2023/04/20 07:41:09;;;;;;;;;;;6.70;99.90;;;;;;5054842;28;19984;-49
2023/04/20 07:43:36;;;;;;;;;;;6.70;99.90;;;;;;5055698;28;20023;-51
2023/04/20 07:46:03;;;;;;;;;;;6.80;99.90;;;;;;5067737;28;19989;-48
2023/04/20 07:48:30;;;;;;;;;;;6.80;99.90;;;;;;5074519;28;19962;-41
2023/04/20 07:50:57;;;;;;;;;;;6.80;99.90;;;;;;5073526;28;20273;-48
2023/04/20 07:53:23;;;;;;;;;;;6.80;99.90;;;;;;5063014;28;19993;-54
2023/04/20 07:55:50;;;;;;;;;;;6.80;99.90;;;;;;5062732;28;19923;-54
2023/04/20 07:58:19;;;;;;;;;;;6.80;99.90;;;;;;5061833;28;19987;-53
2023/04/20 08:00:46;;;;;;;;;;;6.90;99.90;;;;;;5054780;28;19988;-54
2023/04/20 08:03:13;;;;;;;;;;;6.90;99.90;;;;;;5053165;28;19976;-50
2023/04/20 08:05:39;;;;;;;;;;;6.90;99.90;;;;;;5034800;28;19943;-45
2023/04/20 08:08:06;;;;;;;;;;;6.90;99.90;;;;;;5038326;28;19947;-53
2023/04/20 08:10:33;;;;;;;;;;;6.90;99.90;;;;;;5052597;28;19967;-49
2023/04/20 08:12:59;;;;;;;;;;;7.00;99.90;;;;;;5061930;28;19933;-56
2023/04/20 08:15:28;;;;;;;;;;;7.10;99.90;;;;;;5053030;28;19959;-52
2023/04/20 08:17:54;;;;;;;;;;;7.10;99.90;;;;;;5054294;28;19960;-51
2023/04/20 08:20:21;;;;;;;;;;;7.10;99.90;;;;;;5052927;28;19935;-56
2023/04/20 08:22:48;;;;;;;;;;;7.20;99.90;;;;;;5053247;28;19967;-52
2023/04/20 08:25:14;;;;;;;;;;;7.40;99.90;;;;;;5054310;28;19931;-49
2023/04/20 08:27:41;;;;;;;;;;;7.50;99.90;;;;;;5053277;28;20428;-49
2023/04/20 08:30:08;;;;;;;;;;;7.60;99.90;;;;;;5052287;28;19951;-55
2023/04/20 08:32:36;;;;;;;;;;;7.70;99.90;;;;;;5053140;28;20051;-53
2023/04/20 08:35:04;;;;;;;;;;;7.70;99.90;;;;;;5060248;28;20467;-50
2023/04/20 08:37:30;;;;;;;;;;;7.70;99.90;;;;;;5073710;28;19965;-49
2023/04/20 08:39:57;;;;;;;;;;;7.70;99.90;;;;;;5061862;28;19920;-44
2023/04/20 08:42:23;;;;;;;;;;;7.80;99.90;;;;;;5073687;28;19921;-50
2023/04/20 08:44:50;;;;;;;;;;;7.90;99.90;;;;;;5073618;28;19998;-47
2023/04/20 08:47:17;;;;;;;;;;;7.90;99.90;;;;;;5073855;28;19935;-48
2023/04/20 08:49:45;;;;;;;;;;;7.90;99.90;;;;;;5057432;28;19951;-49
2023/04/20 08:52:12;;;;;;;;;;;7.90;99.90;;;;;;5051801;28;19953;-45
2023/04/20 08:54:38;;;;;;;;;;;7.90;99.90;;;;;;5053346;28;19979;-50
2023/04/20 08:57:05;;;;;;;;;;;7.90;99.90;;;;;;5052805;28;20292;-50
2023/04/20 08:59:32;;;;;;;;;;;7.90;99.90;;;;;;5052025;28;19931;-52
2023/04/20 09:02:07;;;;;;;;;;;7.80;99.90;;;;;;5068415;28;19933;-50
2023/04/20 09:04:34;;;;;;;;;;;7.80;99.90;;;;;;5052752;28;19939;-46
2023/04/20 09:07:02;;;;;;;;;;;7.80;99.90;;;;;;5051190;28;19948;-51
2023/04/20 09:09:29;;;;;;;;;;;7.80;99.90;;;;;;5044834;28;19956;-48
2023/04/20 09:12:01;;;;;;;;;;;7.80;99.90;;;;;;5033640;28;20000;-46
2023/04/20 09:14:27;;;;;;;;;;;7.90;99.90;;;;;;5048722;28;19963;-50
2023/04/20 09:16:56;;;;;;;;;;;7.90;99.90;;;;;;5050626;28;20386;-44
2023/04/20 09:19:23;;;;;;;;;;;7.90;99.90;;;;;;5051954;28;20517;-50
2023/04/20 09:21:50;;;;;;;;;;;7.90;99.90;;;;;;5052919;28;20034;-45
2023/04/20 09:24:18;;;;;;;;;;;8.00;99.90;;;;;;5052896;28;19959;-48
2023/04/20 09:26:46;;;;;;;;;;;8.00;99.90;;;;;;5057413;28;19989;-49
2023/04/20 09:29:16;;;;;;;;;;;8.00;99.90;;;;;;5065536;28;19956;-47
2023/04/20 09:31:42;;;;;;;;;;;8.10;99.90;;;;;;5053025;28;19941;-45
2023/04/20 09:34:09;;;;;;;;;;;8.20;99.90;;;;;;5053007;28;19984;-44
2023/04/20 09:36:37;;;;;;;;;;;8.30;99.90;;;;;;5052729;28;20375;-43
2023/04/20 09:39:04;;;;;;;;;;;8.30;99.90;;;;;;5048695;28;19937;-45
2023/04/20 09:41:33;;;;;;;;;;;8.40;99.90;;;;;;5066961;28;19938;-45
2023/04/20 09:44:00;;;;;;;;;;;8.40;99.90;;;;;;5057916;28;20441;-45
2023/04/20 09:46:28;;;;;;;;;;;8.40;99.90;;;;;;5071581;28;19941;-45
2023/04/20 09:48:54;;;;;;;;;;;8.40;99.90;;;;;;5052764;28;20314;-45
2023/04/20 09:51:21;;;;;;;;;;;8.40;99.90;;;;;;5051915;28;19935;-46
2023/04/20 09:53:48;;;;;;;;;;;8.40;99.90;;;;;;5051213;28;19976;-47
2023/04/20 09:56:15;;;;;;;;;;;8.40;99.90;;;;;;5052131;28;19936;-44
2023/04/20 09:58:42;;;;;;;;;;;8.50;99.90;;;;;;5051601;28;19981;-42
2023/04/20 10:01:09;;;;;;;;;;;8.50;99.90;;;;;;5051124;28;19935;-44
2023/04/20 10:03:36;;;;;;;;;;;8.60;99.90;;;;;;5052388;28;19982;-44
2023/04/20 10:06:03;;;;;;;;;;;8.60;99.90;;;;;;5052009;28;19966;-45
2023/04/20 10:08:39;;;;;;;;;;;8.60;99.90;;;;;;5050567;28;19941;-41
2023/04/20 10:11:06;;;;;;;;;;;8.60;99.90;;;;;;5065104;28;20459;-44
2023/04/20 10:13:33;;;;;;;;;;;8.60;99.90;;;;;;5072354;28;19920;-45
2023/04/20 10:16:01;;;;;;;;;;;8.70;99.90;;;;;;5051910;28;19956;-45
2023/04/20 10:18:27;;;;;;;;;;;8.70;99.90;;;;;;5051038;28;19966;-46
2023/04/20 10:21:03;;;;;;;;;;;8.80;99.90;;;;;;5051660;28;20031;-46
2023/04/20 10:23:30;;;;;;;;;;;8.80;99.90;;;;;;5051554;28;20279;-45
2023/04/20 10:25:57;;;;;;;;;;;8.80;99.90;;;;;;5061966;28;19997;-42
2023/04/20 10:28:24;;;;;;;;;;;8.80;99.90;;;;;;5057226;28;20438;-47
2023/04/20 10:30:56;;;;;;;;;;;8.80;99.90;;;;;;5051579;28;20360;-45
2023/04/20 10:33:24;;;;;;;;;;;8.80;99.90;;;;;;5051547;28;20339;-45
2023/04/20 10:35:53;;;;;;;;;;;8.80;99.90;;;;;;5051110;28;19995;-47
2023/04/20 10:38:29;;;;;;;;;;;8.90;99.90;;;;;;5059250;28;20032;-44
2023/04/20 10:40:56;;;;;;;;;;;9.20;99.90;;;;;;5054747;28;19938;-46
2023/04/20 10:43:23;;;;;;;;;;;9.40;99.90;;;;;;5051655;28;19942;-44
2023/04/20 10:45:50;;;;;;;;;;;9.60;99.90;;;;;;5051259;28;19937;-42
2023/04/20 10:48:16;;;;;;;;;;;9.80;99.90;;;;;;5049687;28;19941;-45
2023/04/20 10:50:44;;;;;;;;;;;10.10;99.90;;;;;;5058258;28;20002;-44
2023/04/20 10:53:17;;;;;;;;;;;10.20;99.90;;;;;;5051209;28;19964;-46
2023/04/20 10:55:44;;;;;;;;;;;10.30;99.90;;;;;;5049182;28;19988;-44
2023/04/20 10:58:20;;;;;;;;;;;10.30;99.90;;;;;;5051047;28;19979;-47
2023/04/20 11:00:47;;;;;;;;;;;10.30;99.90;;;;;;5049080;28;19934;-46
2023/04/20 11:03:13;;;;;;;;;;;10.10;99.90;;;;;;5058360;28;19942;-48
2023/04/20 11:05:40;;;;;;;;;;;10.00;99.90;;;;;;5071072;28;20400;-46
2023/04/20 11:08:08;;;;;;;;;;;9.90;99.90;;;;;;5053209;28;20468;-47
2023/04/20 11:10:40;;;;;;;;;;;10.00;99.90;;;;;;5067997;28;19955;-47
2023/04/20 11:13:07;;;;;;;;;;;10.30;99.90;;;;;;5070582;28;20031;-47
2023/04/20 11:15:33;;;;;;;;;;;10.60;99.90;;;;;;5069188;28;19940;-44
2023/04/20 11:18:06;;;;;;;;;;;10.70;99.90;;;;;;5069040;28;20011;-46
2023/04/20 11:20:32;;;;;;;;;;;10.80;99.90;;;;;;5051931;28;19983;-44
2023/04/20 11:22:59;;;;;;;;;;;11.10;99.90;;;;;;5049492;28;19990;-45
2023/04/20 11:25:27;;;;;;;;;;;11.30;99.90;;;;;;5057758;28;19945;-48
2023/04/20 11:27:54;;;;;;;;;;;11.60;99.90;;;;;;5069592;28;20035;-50
2023/04/20 11:30:21;;;;;;;;;;;11.80;99.90;;;;;;5070296;28;19961;-44
2023/04/20 11:32:53;;;;;;;;;;;12.00;99.90;;;;;;5069388;28;19990;-46
2023/04/20 11:35:19;;;;;;;;;;;12.00;99.90;;;;;;5067514;28;19951;-48
2023/04/20 11:37:46;;;;;;;;;;;12.00;99.90;;;;;;5055749;28;19937;-44
2023/04/20 11:40:13;;;;;;;;;;;12.00;99.90;;;;;;5048658;28;19946;-45
2023/04/20 11:42:41;;;;;;;;;;;11.90;99.90;;;;;;5052063;28;19940;-45
2023/04/20 11:45:10;;;;;;;;;;;12.00;99.90;;;;;;5050874;28;19937;-42
2023/04/20 11:47:37;;;;;;;;;;;12.20;99.90;;;;;;5050678;28;19952;-44
2023/04/20 11:50:04;;;;;;;;;;;12.30;99.90;;;;;;5050759;28;20040;-42
2023/04/20 11:52:31;;;;;;;;;;;12.30;99.90;;;;;;5052196;28;19961;-45
2023/04/20 11:54:58;;;;;;;;;;;12.40;99.90;;;;;;5050970;28;19993;-45
2023/04/20 11:57:24;;;;;;;;;;;12.50;99.90;;;;;;5050801;28;19938;-43
2023/04/20 11:59:52;;;;;;;;;;;12.60;99.90;;;;;;5050937;28;20032;-45
2023/04/20 12:02:19;;;;;;;;;;;12.60;99.90;;;;;;5050744;28;20376;-45
2023/04/20 12:04:46;;;;;;;;;;;12.60;99.90;;;;;;5051048;28;20321;-45
2023/04/20 12:07:13;;;;;;;;;;;12.50;99.90;;;;;;5050957;28;20031;-44
2023/04/20 12:09:40;;;;;;;;;;;12.60;99.90;;;;;;5050457;28;20008;-45
2023/04/20 12:12:07;;;;;;;;;;;12.70;99.90;;;;;;5056935;28;19934;-46
2023/04/20 12:14:34;;;;;;;;;;;12.80;99.90;;;;;;5062673;28;20401;-45
2023/04/20 12:17:02;;;;;;;;;;;12.90;99.90;;;;;;5067904;28;20271;-46
2023/04/20 12:19:29;;;;;;;;;;;13.00;99.90;;;;;;5071002;28;19944;-46
2023/04/20 12:21:55;;;;;;;;;;;13.10;99.90;;;;;;5070706;28;19937;-46
2023/04/20 12:24:22;;;;;;;;;;;13.10;99.90;;;;;;5065004;28;19993;-41
2023/04/20 12:26:49;;;;;;;;;;;13.30;99.90;;;;;;5052003;28;20308;-41
2023/04/20 12:29:16;;;;;;;;;;;13.20;99.90;;;;;;5056401;28;20032;-41
2023/04/20 12:31:42;;;;;;;;;;;13.10;99.90;;;;;;5075096;28;19942;-43
2023/04/20 12:34:10;;;;;;;;;;;13.00;99.90;;;;;;5073518;28;19972;-41
2023/04/20 12:36:37;;;;;;;;;;;12.80;99.90;;;;;;5070160;28;20363;-42
2023/04/20 12:39:03;;;;;;;;;;;12.70;99.90;;;;;;5063060;28;19993;-42
2023/04/20 12:41:30;;;;;;;;;;;12.60;99.90;;;;;;5073774;28;19935;-41
2023/04/20 12:43:57;;;;;;;;;;;12.50;99.90;;;;;;5073803;28;20331;-43
2023/04/20 12:46:24;;;;;;;;;;;12.40;99.90;;;;;;5072503;28;19941;-42
2023/04/20 12:48:50;;;;;;;;;;;12.30;99.90;;;;;;5054977;28;19937;-44
2023/04/20 12:51:18;;;;;;;;;;;12.20;99.90;;;;;;5054185;28;19958;-41
2023/04/20 12:53:45;;;;;;;;;;;12.10;99.90;;;;;;5053029;28;19980;-41
2023/04/20 12:56:11;;;;;;;;;;;12.10;99.90;;;;;;5054704;28;20027;-46
2023/04/20 12:58:38;;;;;;;;;;;12.10;99.90;;;;;;5071126;28;20041;-46
2023/04/20 13:01:05;;;;;;;;;;;12.10;99.90;;;;;;5054290;28;19989;-41
2023/04/20 13:03:31;;;;;;;;;;;12.00;99.90;;;;;;5034937;28;20353;-44
2023/04/20 13:05:58;;;;;;;;;;;11.90;99.90;;;;;;5050340;28;20293;-43
2023/04/20 13:08:26;;;;;;;;;;;11.70;99.90;;;;;;5034700;28;19999;-43
2023/04/20 13:10:53;;;;;;;;;;;11.70;99.90;;;;;;5042605;28;19965;-46
2023/04/20 13:13:20;;;;;;;;;;;11.80;99.90;;;;;;5054559;28;19985;-46
2023/04/20 13:15:46;;;;;;;;;;;11.80;99.90;;;;;;5054203;28;19989;-43
2023/04/20 13:18:14;;;;;;;;;;;11.80;99.90;;;;;;5053122;28;20014;-40
2023/04/20 13:20:40;;;;;;;;;;;11.80;99.90;;;;;;5046731;28;20389;-44
2023/04/20 13:23:07;;;;;;;;;;;11.90;99.90;;;;;;5057869;28;19939;-43
2023/04/20 13:25:37;;;;;;;;;;;12.10;99.90;;;;;;5053335;28;19939;-45
2023/04/20 13:28:04;;;;;;;;;;;12.20;99.90;;;;;;5053297;28;20307;-41
2023/04/20 13:30:31;;;;;;;;;;;12.30;99.90;;;;;;5052903;28;20383;-41
2023/04/20 13:32:57;;;;;;;;;;;12.40;99.90;;;;;;5050628;28;19983;-47
2023/04/20 13:35:24;;;;;;;;;;;12.30;99.90;;;;;;5052533;28;20403;-46
2023/04/20 13:37:50;;;;;;;;;;;12.30;99.90;;;;;;5053052;28;20392;-44
2023/04/20 13:40:17;;;;;;;;;;;12.30;99.90;;;;;;5052947;28;19975;-46
2023/04/20 13:42:45;;;;;;;;;;;12.30;99.90;;;;;;5053088;28;20030;-42
2023/04/20 13:45:12;;;;;;;;;;;12.40;99.90;;;;;;5046486;28;20025;-43
2023/04/20 13:47:38;;;;;;;;;;;12.50;99.90;;;;;;5052493;28;19938;-44
2023/04/20 13:50:05;;;;;;;;;;;12.40;99.90;;;;;;5053698;28;20676;-47
2023/04/20 13:52:32;;;;;;;;;;;12.50;99.90;;;;;;5053755;28;19937;-42
2023/04/20 13:54:59;;;;;;;;;;;12.50;99.90;;;;;;5050175;28;20356;-43
2023/04/20 13:57:25;;;;;;;;;;;12.60;99.90;;;;;;5048861;28;19936;-41
2023/04/20 13:59:53;;;;;;;;;;;12.80;99.90;;;;;;5055802;28;20028;-42
2023/04/20 14:02:20;;;;;;;;;;;13.00;99.90;;;;;;5055917;28;19938;-42
2023/04/20 14:04:46;;;;;;;;;;;13.10;99.90;;;;;;5049221;28;20000;-43
2023/04/20 14:07:13;;;;;;;;;;;13.00;99.90;;;;;;5046419;28;19994;-44
2023/04/20 14:09:40;;;;;;;;;;;12.90;99.90;;;;;;5048807;28;20202;-44
2023/04/20 14:12:06;;;;;;;;;;;12.90;99.90;;;;;;5036689;28;19982;-45
2023/04/20 14:14:33;;;;;;;;;;;13.00;99.90;;;;;;5046568;28;20030;-43
2023/04/20 14:17:01;;;;;;;;;;;13.20;99.90;;;;;;5052535;28;20370;-43
2023/04/20 14:19:28;;;;;;;;;;;13.50;99.90;;;;;;5039991;28;19985;-47
2023/04/20 14:21:55;;;;;;;;;;;13.80;99.90;;;;;;5052591;28;19974;-42
2023/04/20 14:24:21;;;;;;;;;;;14.00;99.70;;;;;;5053176;28;19935;-44